Thetford, Vermont
Current Conditions -  °F | °C
As of 2:53 PM on Sunday 21 Dec 2014 (Local Time) from KLEB Reporting Station
Overcast Overcast  
Wind Chill: 29°   Ceiling: 4400
Heat Index: 29°   Visibility: 8mi
Dew Point: 24°   Wind: 0mph
Humidity: 82%   Direction: NA
Pressure: 30.3"   Gusts: NA
Location:  43.82°N, 72.23°W
Report Text: KLEB 211953Z 00000KT 8SM BKN044 BKN055 OVC110 M02/M04 A3030 RMK AO2 SLP270 T10171044
Loading
Personal Weather Stations






























Interactive Weather Map New forecast layout! Learn more

10-Day Weather Forecast

Advertisements
Track Severe Weather on mobile